Time;durP1;ratioP1;P1;durP2;ratioP2;P2;SDS_P1;SDS_P2;PMS_P1;PMS_P2;Temp;Humidity;BMP_temperature;BMP_pressure;BME280_temperature;BME280_humidity;BME280_pressure;Samples;Min_cycle;Max_cycle;Signal;HPM_P1;HPM_P2
2022/08/28 00:00:30;;;;;;;13.70;5.00;;;;;;;21.84;48.10;99944.55;103356;1277;110250;-64
2022/08/28 00:03:07;;;;;;;11.50;5.50;;;;;;;21.81;48.37;99946.94;103351;1277;138828;-64
2022/08/28 00:05:38;;;;;;;10.70;5.00;;;;;;;21.79;48.29;99947.85;103823;1277;109244;-64
2022/08/28 00:08:08;;;;;;;12.00;5.30;;;;;;;21.77;48.33;99944.95;103399;1277;139849;-65
2022/08/28 00:10:38;;;;;;;12.80;5.60;;;;;;;21.77;48.38;99949.10;103481;1277;95119;-64
2022/08/28 00:13:12;;;;;;;11.70;5.20;;;;;;;21.77;48.42;99947.12;103497;1277;109667;-64
2022/08/28 00:15:40;;;;;;;10.80;5.20;;;;;;;21.76;48.58;99948.60;103402;1277;139111;-65
2022/08/28 00:18:08;;;;;;;10.70;5.70;;;;;;;21.79;48.68;99944.38;103563;1277;108828;-64
2022/08/28 00:20:37;;;;;;;9.80;5.00;;;;;;;21.79;48.62;99946.23;103362;1277;138263;-66
2022/08/28 00:23:05;;;;;;;13.90;5.50;;;;;;;21.75;48.91;99946.33;103473;1277;95214;-64
2022/08/28 00:25:34;;;;;;;10.30;5.40;;;;;;;21.73;48.93;99943.11;103456;1277;109831;-64
2022/08/28 00:28:06;;;;;;;10.30;5.40;;;;;;;21.71;48.99;99943.37;103358;1277;138086;-63
2022/08/28 00:30:42;;;;;;;12.50;5.00;;;;;;;21.73;48.95;99938.77;103586;1277;109131;-66
2022/08/28 00:33:15;;;;;;;13.20;5.50;;;;;;;21.72;48.83;99937.91;103368;1277;139802;-65
2022/08/28 00:35:43;;;;;;;11.80;5.60;;;;;;;21.63;48.66;99937.21;103474;1277;95233;-65
2022/08/28 00:38:12;;;;;;;10.00;5.00;;;;;;;21.58;49.24;99934.67;103345;1277;138333;-65
2022/08/28 00:40:43;;;;;;;12.20;5.40;;;;;;;21.57;48.93;99932.04;103550;1277;99388;-64
2022/08/28 00:43:25;;;;;;;10.50;5.10;;;;;;;21.54;48.84;99929.05;103694;1276;107770;-65
2022/08/28 00:45:53;;;;;;;12.10;5.40;;;;;;;21.50;49.36;99934.01;103364;1277;138408;-65
2022/08/28 00:48:21;;;;;;;12.60;5.60;;;;;;;21.46;49.34;99934.13;103456;1277;95167;-65
2022/08/28 00:53:36;;;;;;;11.50;5.40;;;;;;;21.34;49.74;99930.36;103506;1277;99447;-64
2022/08/28 00:56:07;;;;;;;12.30;5.40;;;;;;;21.29;49.72;99924.47;103673;1277;138311;-64
2022/08/28 00:58:43;;;;;;;11.10;5.50;;;;;;;21.27;49.88;99927.67;103501;1276;95250;-64
2022/08/28 01:01:13;;;;;;;12.20;5.70;;;;;;;21.23;49.81;99931.40;103503;1277;95247;-64
2022/08/28 01:03:42;;;;;;;13.60;5.90;;;;;;;21.16;49.77;99935.02;103401;1277;138766;-65
2022/08/28 01:06:13;;;;;;;12.00;5.50;;;;;;;21.14;50.21;99930.83;103474;1277;99780;-65
2022/08/28 01:08:45;;;;;;;9.50;5.10;;;;;;;21.14;50.46;99929.02;103337;1277;138410;-66
2022/08/28 01:11:19;;;;;;;11.40;5.60;;;;;;;21.10;50.13;99926.29;103422;1277;95314;-65
2022/08/28 01:13:47;;;;;;;11.90;5.70;;;;;;;21.09;50.52;99923.16;103382;1276;138750;-66
2022/08/28 01:16:18;;;;;;;10.20;5.60;;;;;;;21.08;50.18;99919.66;103473;1277;109288;-65
2022/08/28 01:18:48;;;;;;;11.60;5.30;;;;;;;21.04;50.49;99920.64;103538;1277;99420;-64
2022/08/28 01:21:36;;;;;;;11.50;5.60;;;;;;;21.01;50.83;99919.58;103375;1277;138654;-65
2022/08/28 01:24:09;;;;;;;12.60;5.60;;;;;;;20.98;50.91;99917.48;103548;1277;95750;-66
2022/08/28 01:26:37;;;;;;;10.90;5.50;;;;;;;20.94;50.89;99918.02;103369;1277;138588;-65
2022/08/28 01:29:07;;;;;;;11.30;5.40;;;;;;;20.92;50.88;99921.98;103506;1277;110335;-64
2022/08/28 01:31:36;;;;;;;13.10;5.30;;;;;;;20.90;51.22;99920.48;103586;1277;99380;-65
2022/08/28 01:34:06;;;;;;;13.00;5.90;;;;;;;20.89;50.96;99917.08;103722;1277;139146;-64
2022/08/28 01:36:34;;;;;;;12.90;5.10;;;;;;;20.88;50.65;99920.77;103535;1277;96541;-65
2022/08/28 01:39:11;;;;;;;10.50;5.20;;;;;;;20.85;50.79;99923.52;103361;1277;138173;-64
2022/08/28 01:41:41;;;;;;;12.40;5.30;;;;;;;20.85;50.71;99922.11;103512;1277;109482;-64
2022/08/28 01:44:09;;;;;;;11.20;5.00;;;;;;;20.85;51.18;99920.32;103561;1276;138571;-65
2022/08/28 01:46:40;;;;;;;10.60;5.20;;;;;;;20.84;50.88;99920.02;103470;1277;108874;-65
2022/08/28 01:49:10;;;;;;;12.10;5.70;;;;;;;20.81;50.73;99924.73;103468;1277;95273;-64
2022/08/28 01:51:40;;;;;;;12.20;5.40;;;;;;;20.83;50.87;99922.45;103438;1277;138317;-65
2022/08/28 01:54:09;;;;;;;12.20;5.30;;;;;;;20.84;51.06;99921.27;103616;1277;108509;-65
2022/08/28 01:56:41;;;;;;;11.30;5.00;;;;;;;20.83;51.22;99921.88;103390;1277;138281;-65
2022/08/28 01:59:11;;;;;;;11.50;5.40;;;;;;;20.81;51.30;99920.60;103471;1277;106882;-65
2022/08/28 02:01:41;;;;;;;11.70;5.30;;;;;;;20.79;51.33;99922.58;103593;1277;96934;-64
2022/08/28 02:04:10;;;;;;;12.30;6.00;;;;;;;20.79;51.33;99920.77;103462;1277;138410;-65
2022/08/28 02:06:40;;;;;;;10.40;5.30;;;;;;;20.80;51.44;99925.36;103519;1277;110092;-64
2022/08/28 02:09:08;;;;;;;10.60;5.40;;;;;;;20.78;51.43;99926.45;103516;1276;138443;-64
2022/08/28 02:11:42;;;;;;;10.90;5.40;;;;;;;20.74;51.46;99924.20;103451;1277;107737;-61
2022/08/28 02:14:14;;;;;;;9.90;5.40;;;;;;;20.73;51.79;99926.60;103541;1276;138482;-65
2022/08/28 02:16:42;;;;;;;13.20;6.00;;;;;;;20.70;51.68;99925.90;103547;1276;95208;-66
2022/08/28 02:19:11;;;;;;;11.70;5.40;;;;;;;20.68;51.88;99925.73;103724;1276;109769;-65
2022/08/28 02:21:39;;;;;;;11.80;5.50;;;;;;;20.65;51.98;99919.94;103420;1277;138371;-64
2022/08/28 02:24:07;;;;;;;12.50;5.70;;;;;;;20.64;52.03;99919.92;103566;1277;107627;-64
2022/08/28 02:26:37;;;;;;;12.20;5.80;;;;;;;20.62;52.17;99922.00;103581;1276;138411;-64
2022/08/28 02:29:05;;;;;;;12.10;6.00;;;;;;;20.61;52.29;99922.83;103459;1276;95609;-65
2022/08/28 02:31:33;;;;;;;9.70;5.30;;;;;;;20.60;52.57;99922.53;103476;1276;109695;-62
2022/08/28 02:34:01;;;;;;;13.80;5.70;;;;;;;20.57;52.50;99918.39;103384;1277;137964;-64
2022/08/28 02:36:29;;;;;;;10.80;5.90;;;;;;;20.54;52.54;99915.77;103459;1276;108821;-64
2022/08/28 02:38:58;;;;;;;12.00;6.10;;;;;;;20.51;52.63;99923.52;103438;1276;138189;-65
2022/08/28 02:41:26;;;;;;;13.40;6.20;;;;;;;20.49;52.60;99923.17;103585;1276;95736;-64
2022/08/28 02:43:54;;;;;;;12.80;5.80;;;;;;;20.48;52.73;99922.31;103363;1276;139030;-64
2022/08/28 02:46:22;;;;;;;12.40;5.50;;;;;;;20.47;52.77;99917.91;103476;1277;99596;-65
2022/08/28 02:48:50;;;;;;;11.70;5.80;;;;;;;20.45;52.94;99915.36;103463;1277;108824;-64
2022/08/28 02:51:18;;;;;;;12.50;5.90;;;;;;;20.40;53.22;99918.06;103322;1276;138313;-65
2022/08/28 02:53:46;;;;;;;11.40;5.70;;;;;;;20.38;53.21;99921.48;103471;1276;95239;-65
2022/08/28 02:56:15;;;;;;;11.40;5.70;;;;;;;20.35;53.17;99923.67;103416;1276;138234;-64
2022/08/28 02:58:43;;;;;;;11.90;6.00;;;;;;;20.29;53.26;99919.09;103761;1277;98447;-64
2022/08/28 03:01:13;;;;;;;11.60;5.50;;;;;;;20.25;53.40;99916.54;103805;1276;108248;-64
2022/08/28 03:03:42;;;;;;;15.70;5.80;;;;;;;20.19;53.50;99918.50;103347;1277;138202;-65
2022/08/28 03:06:11;;;;;;;10.80;5.60;;;;;;;20.20;53.49;99925.33;103504;1277;95343;-65
2022/08/28 03:08:43;;;;;;;13.30;6.30;;;;;;;20.21;53.82;99920.40;103563;1277;138100;-64
2022/08/28 03:11:11;;;;;;;11.50;5.90;;;;;;;20.18;53.83;99920.59;103523;1277;99506;-66
2022/08/28 03:13:41;;;;;;;11.70;6.10;;;;;;;20.18;54.07;99920.09;103457;1277;107466;-63
2022/08/28 03:16:09;;;;;;;12.90;5.90;;;;;;;20.15;54.30;99911.05;103519;1277;138043;-64
2022/08/28 03:18:37;;;;;;;14.10;6.30;;;;;;;20.15;54.31;99909.85;103567;1277;95142;-64
2022/08/28 03:21:05;;;;;;;13.70;6.10;;;;;;;20.15;54.46;99916.14;103358;1277;138495;-64
2022/08/28 03:23:34;;;;;;;12.20;6.60;;;;;;;20.07;54.44;99916.77;103651;1276;97383;-65
2022/08/28 03:26:06;;;;;;;13.50;6.10;;;;;;;19.98;54.71;99917.21;103428;1276;138177;-64
2022/08/28 03:28:38;;;;;;;11.30;6.20;;;;;;;19.93;54.76;99914.19;103761;1277;95307;-65
2022/08/28 03:31:08;;;;;;;15.50;6.90;;;;;;;19.90;54.94;99919.93;103557;1277;95518;-63
2022/08/28 03:33:36;;;;;;;13.30;6.00;;;;;;;19.87;54.87;99921.61;103384;1277;138544;-65
2022/08/28 03:36:11;;;;;;;14.80;6.10;;;;;;;19.80;55.00;99920.80;103479;1277;99744;-64
2022/08/28 03:38:40;;;;;;;12.00;6.10;;;;;;;19.77;55.54;99917.09;103316;1277;138409;-64
2022/08/28 03:41:10;;;;;;;11.10;6.30;;;;;;;19.75;55.75;99918.66;103842;1276;97170;-64
2022/08/28 03:43:38;;;;;;;13.90;6.40;;;;;;;19.69;55.91;99921.05;103938;1277;96541;-64
2022/08/28 03:46:10;;;;;;;13.30;6.30;;;;;;;19.66;55.83;99919.28;103370;1277;138276;-66
2022/08/28 03:48:38;;;;;;;12.30;6.00;;;;;;;19.67;55.85;99922.83;103645;1277;99487;-64
2022/08/28 03:51:15;;;;;;;12.90;6.30;;;;;;;19.67;55.91;99925.15;103349;1277;138127;-65
2022/08/28 03:53:45;;;;;;;12.10;6.00;;;;;;;19.65;55.78;99926.73;103503;1277;95646;-68
2022/08/28 03:56:17;;;;;;;12.00;6.10;;;;;;;19.63;56.03;99931.40;103338;1277;138245;-64
2022/08/28 03:58:46;;;;;;;14.20;5.90;;;;;;;19.60;56.32;99932.02;103487;1277;110366;-65
2022/08/28 04:01:14;;;;;;;13.00;6.40;;;;;;;19.55;56.37;99932.65;103638;1277;99431;-64
2022/08/28 04:03:43;;;;;;;13.60;6.50;;;;;;;19.52;56.60;99941.14;103306;1277;138066;-65
2022/08/28 04:06:11;;;;;;;12.20;6.30;;;;;;;19.49;56.47;99941.37;103398;1277;97140;-65
2022/08/28 04:08:39;;;;;;;13.30;6.50;;;;;;;19.45;56.77;99943.70;103333;1277;138201;-65
2022/08/28 04:11:08;;;;;;;12.20;6.00;;;;;;;19.41;56.77;99939.46;103401;1277;110233;-64
2022/08/28 04:13:40;;;;;;;12.90;6.50;;;;;;;19.36;56.88;99945.05;103594;1276;97882;-64
2022/08/28 04:16:11;;;;;;;12.60;6.00;;;;;;;19.32;57.10;99948.52;103622;1277;138374;-64
2022/08/28 04:18:41;;;;;;;11.80;6.30;;;;;;;19.35;57.29;99945.45;103524;1277;95248;-64
2022/08/28 04:21:13;;;;;;;12.20;6.30;;;;;;;19.41;57.31;99945.02;103667;1277;138345;-64
2022/08/28 04:23:43;;;;;;;13.80;6.10;;;;;;;19.47;57.19;99939.55;103375;1277;108339;-65
2022/08/28 04:26:15;;;;;;;11.90;6.80;;;;;;;19.48;57.38;99942.88;103880;1277;138383;-63
2022/08/28 04:28:44;;;;;;;13.50;6.30;;;;;;;19.48;57.46;99946.36;103628;1277;107856;-61
2022/08/28 04:31:13;;;;;;;12.60;6.40;;;;;;;19.44;57.46;99948.84;103475;1277;95326;-65
2022/08/28 04:33:42;;;;;;;12.40;6.90;;;;;;;19.37;57.61;99949.63;103666;1277;138037;-66
2022/08/28 04:36:16;;;;;;;13.20;5.80;;;;;;;19.34;57.96;99949.64;103374;1276;109911;-65
2022/08/28 04:38:44;;;;;;;11.90;6.90;;;;;;;19.33;58.13;99951.20;103307;1277;138701;-65
2022/08/28 04:41:14;;;;;;;13.40;6.70;;;;;;;19.30;58.16;99944.20;103400;1277;108827;-64
2022/08/28 04:43:43;;;;;;;11.50;6.80;;;;;;;19.32;58.34;99945.64;103578;1276;95687;-64
2022/08/28 04:46:13;;;;;;;11.80;6.60;;;;;;;19.40;58.44;99946.14;103448;1277;97163;-65
2022/08/28 04:48:42;;;;;;;12.80;6.70;;;;;;;19.45;58.40;99953.54;103351;1277;109858;-65
2022/08/28 04:51:12;;;;;;;15.20;7.00;;;;;;;19.45;58.44;99948.34;103499;1276;138713;-64
2022/08/28 04:53:41;;;;;;;9.90;5.50;;;;;;;19.49;58.60;99952.41;103476;1276;108890;-64
2022/08/28 04:56:12;;;;;;;12.10;6.60;;;;;;;19.52;58.85;99947.80;103342;1277;138903;-65
2022/08/28 04:58:42;;;;;;;11.30;6.50;;;;;;;19.60;58.99;99949.86;103808;1277;96114;-65
2022/08/28 05:01:19;;;;;;;12.40;6.40;;;;;;;19.64;58.58;99947.69;103427;1277;108677;-64
2022/08/28 05:03:53;;;;;;;11.80;6.60;;;;;;;19.71;59.09;99949.36;103440;1276;138907;-64
2022/08/28 05:06:25;;;;;;;13.80;6.90;;;;;;;19.73;58.62;99951.05;103386;1277;109373;-64
2022/08/28 05:08:59;;;;;;;10.80;6.70;;;;;;;19.77;58.30;99952.05;103425;1277;138277;-64
2022/08/28 05:11:29;;;;;;;12.10;6.70;;;;;;;19.79;58.24;99954.21;103460;1277;95223;-64
2022/08/28 05:14:03;;;;;;;12.10;6.30;;;;;;;19.82;58.51;99952.07;103452;1277;138403;-67
2022/08/28 05:16:38;;;;;;;13.90;6.30;;;;;;;19.82;58.21;99953.09;103543;1277;99394;-66
2022/08/28 05:19:06;;;;;;;13.10;6.90;;;;;;;19.93;58.19;99950.02;103493;1276;107646;-66
2022/08/28 05:21:34;;;;;;;15.50;6.70;;;;;;;20.01;58.18;99951.56;103364;1276;138214;-64
2022/08/28 05:24:03;;;;;;;13.50;6.70;;;;;;;20.04;57.80;99953.90;103463;1277;95864;-64
2022/08/28 05:26:32;;;;;;;14.00;6.80;;;;;;;20.06;57.82;99956.46;103590;1277;138170;-64
2022/08/28 05:29:03;;;;;;;13.40;7.00;;;;;;;20.07;57.92;99956.36;103459;1276;100317;-63
2022/08/28 05:31:33;;;;;;;13.20;7.00;;;;;;;20.09;58.02;99956.61;103495;1277;109294;-64
2022/08/28 05:34:02;;;;;;;10.70;6.90;;;;;;;20.13;58.24;99957.00;103573;1277;138135;-64
2022/08/28 05:36:35;;;;;;;11.00;6.40;;;;;;;20.17;58.19;99956.71;103547;1277;95184;-64
2022/08/28 05:39:06;;;;;;;13.30;7.00;;;;;;;20.21;57.98;99951.17;103455;1276;138900;-64
2022/08/28 05:41:35;;;;;;;12.60;6.80;;;;;;;20.22;58.15;99953.86;103514;1276;100973;-64
2022/08/28 05:44:06;;;;;;;14.00;7.30;;;;;;;20.27;58.04;99956.56;103442;1277;138668;-64
2022/08/28 05:46:36;;;;;;;14.60;6.90;;;;;;;20.35;57.94;99955.79;103499;1277;96034;-65
2022/08/28 05:49:06;;;;;;;11.90;6.80;;;;;;;20.39;57.99;99956.19;103551;1278;95282;-64
2022/08/28 05:51:39;;;;;;;15.40;7.10;;;;;;;20.41;58.06;99956.08;103574;1277;138174;-65
2022/08/28 05:54:08;;;;;;;12.10;6.70;;;;;;;20.46;58.24;99957.65;103765;1277;99453;-66
2022/08/28 05:56:39;;;;;;;14.00;7.40;;;;;;;20.54;58.16;99963.16;103428;1276;138383;-64
2022/08/28 05:59:09;;;;;;;14.90;6.90;;;;;;;20.62;57.63;99964.78;103548;1277;95322;-64
2022/08/28 06:01:40;;;;;;;12.90;7.60;;;;;;;20.71;57.87;99961.98;103570;1277;96320;-64
2022/08/28 06:04:14;;;;;;;10.90;6.80;;;;;;;20.80;57.74;99964.52;103711;1277;137953;-64
2022/08/28 06:06:43;;;;;;;13.50;7.10;;;;;;;20.88;57.79;99965.33;103511;1277;100394;-65
2022/08/28 06:09:14;;;;;;;13.40;7.40;;;;;;;20.96;57.94;99968.02;103552;1277;138401;-65
2022/08/28 06:11:43;;;;;;;12.30;7.40;;;;;;;21.07;57.94;99970.59;103467;1277;95769;-65
2022/08/28 06:14:16;;;;;;;13.50;7.70;;;;;;;21.17;58.16;99964.59;103373;1277;138394;-66
2022/08/28 06:16:51;;;;;;;13.00;7.30;;;;;;;21.19;58.04;99965.64;103467;1277;109315;-64
2022/08/28 06:19:21;;;;;;;14.00;7.20;;;;;;;21.22;58.00;99968.02;103506;1277;99466;-64
2022/08/28 06:21:54;;;;;;;12.60;6.50;;;;;;;21.21;58.25;99964.81;103365;1276;138265;-65
2022/08/28 06:24:23;;;;;;;14.60;7.50;;;;;;;21.28;58.30;99966.85;103471;1276;95975;-64
2022/08/28 06:26:51;;;;;;;12.90;7.60;;;;;;;21.35;58.40;99969.54;103409;1277;138521;-65
2022/08/28 06:29:23;;;;;;;16.90;7.30;;;;;;;21.41;58.38;99965.79;103442;1277;109835;-64
2022/08/28 06:31:54;;;;;;;14.20;7.60;;;;;;;21.54;58.55;99963.35;103392;1277;138986;-63
2022/08/28 06:34:23;;;;;;;15.10;7.40;;;;;;;21.67;58.35;99966.14;103460;1277;109518;-65
2022/08/28 06:36:51;;;;;;;13.40;8.20;;;;;;;21.79;58.63;99966.58;103485;1277;96140;-65
2022/08/28 06:39:22;;;;;;;14.30;7.90;;;;;;;21.89;58.45;99964.38;103393;1277;138100;-65
2022/08/28 06:41:49;;;;;;;11.80;6.70;;;;;;;21.98;58.14;99961.27;103408;1276;109845;-66
2022/08/28 06:44:19;;;;;;;12.10;7.60;;;;;;;22.10;58.07;99957.63;103335;1277;139371;-65
2022/08/28 06:46:50;;;;;;;12.60;7.10;;;;;;;22.16;57.78;99954.71;103441;1276;108833;-64
2022/08/28 06:49:18;;;;;;;11.70;7.40;;;;;;;22.24;57.82;99952.48;103873;1276;95239;-65
2022/08/28 06:51:46;;;;;;;13.00;8.10;;;;;;;22.33;57.99;99951.23;103391;1276;138607;-65
2022/08/28 06:54:16;;;;;;;13.40;7.40;;;;;;;22.44;57.78;99951.77;103467;1277;109686;-66
2022/08/28 06:56:51;;;;;;;13.60;7.80;;;;;;;22.56;58.04;99951.34;103482;1277;138465;-64
2022/08/28 06:59:19;;;;;;;12.90;7.50;;;;;;;22.65;57.44;99948.02;103590;1276;109137;-64
2022/08/28 07:01:47;;;;;;;13.00;7.70;;;;;;;22.75;57.29;99951.18;103330;1276;138460;-64
2022/08/28 07:04:15;;;;;;;13.10;7.40;;;;;;;22.83;57.01;99949.03;104002;1277;95795;-64
2022/08/28 07:06:44;;;;;;;12.70;7.00;;;;;;;22.94;57.08;99949.08;103445;1276;109697;-66
2022/08/28 07:09:15;;;;;;;11.80;7.60;;;;;;;23.05;57.08;99950.64;103387;1277;138737;-64
2022/08/28 07:11:47;;;;;;;12.50;7.20;;;;;;;23.16;56.74;99952.83;103613;1277;108657;-65
2022/08/28 07:14:16;;;;;;;13.80;7.60;;;;;;;23.25;56.40;99950.19;103452;1277;138671;-64
2022/08/28 07:16:43;;;;;;;11.90;7.40;;;;;;;23.37;56.16;99951.20;103507;1277;95740;-64
2022/08/28 07:19:12;;;;;;;13.30;7.50;;;;;;;23.45;56.00;99948.71;103466;1276;110493;-65
2022/08/28 07:21:43;;;;;;;11.90;7.20;;;;;;;23.52;56.64;99943.46;103371;1276;139436;-64
2022/08/28 07:28:16;;;;;;;13.10;7.20;;;;;;;23.76;55.61;99945.18;104886;1279;95804;-84
2022/08/28 07:30:45;;;;;;;16.40;7.70;;;;;;;23.86;55.79;99951.61;104734;1281;95226;-83
2022/08/28 07:33:13;;;;;;;12.10;7.60;;;;;;;23.98;55.79;99955.29;104756;1279;139536;-83
2022/08/28 07:35:44;;;;;;;14.00;7.60;;;;;;;24.11;55.47;99952.83;104855;1279;99385;-83
2022/08/28 07:38:11;;;;;;;11.70;7.80;;;;;;;24.23;54.92;99951.20;106061;1279;139202;-85
2022/08/28 07:40:39;;;;;;;13.60;7.70;;;;;;;24.32;54.85;99950.35;104910;1279;95029;-83
2022/08/28 07:46:04;;;;;;;11.70;7.80;;;;;;;24.58;55.15;99949.63;104659;1279;141138;-83
2022/08/28 07:48:34;;;;;;;12.90;7.60;;;;;;;24.73;54.52;99951.20;104927;1279;99405;-84
2022/08/28 07:51:03;;;;;;;12.50;7.20;;;;;;;24.86;54.43;99952.20;104704;1279;140093;-82
2022/08/28 07:53:32;;;;;;;11.80;7.30;;;;;;;24.99;54.36;99954.06;104881;1279;95859;-83
2022/08/28 07:56:04;;;;;;;13.10;7.40;;;;;;;25.10;53.94;99956.86;104738;1279;138671;-83
2022/08/28 07:58:32;;;;;;;12.70;7.40;;;;;;;25.22;54.08;99960.58;104793;1281;111068;-83
2022/08/28 08:01:00;;;;;;;14.00;7.30;;;;;;;25.37;53.87;99959.77;104952;1279;100385;-84
2022/08/28 08:03:30;;;;;;;10.30;7.00;;;;;;;25.51;53.99;99960.05;104629;1281;141374;-85
2022/08/28 08:06:01;;;;;;;12.00;7.20;;;;;;;25.63;53.08;99956.89;104959;1279;96091;-85
2022/08/28 08:08:30;;;;;;;11.50;7.20;;;;;;;25.75;53.30;99960.25;104780;1280;138729;-85
2022/08/28 08:11:09;;;;;;;11.70;7.40;;;;;;;25.87;52.97;99960.79;104916;1280;110537;-84
2022/08/28 08:13:38;;;;;;;11.80;6.70;;;;;;;25.99;52.82;99960.15;104769;1279;97257;-84
2022/08/28 08:16:11;;;;;;;11.00;6.60;;;;;;;26.08;52.21;99960.59;104488;1281;140778;-85
2022/08/28 08:18:41;;;;;;;12.60;7.20;;;;;;;26.20;52.14;99960.30;105031;1280;95576;-85
2022/08/28 08:21:12;;;;;;;12.00;6.80;;;;;;;26.36;52.31;99954.89;104766;1279;139231;-84
2022/08/28 08:23:41;;;;;;;13.10;7.10;;;;;;;26.51;51.84;99957.08;104774;1279;110180;-86
2022/08/28 08:26:12;;;;;;;12.40;7.40;;;;;;;26.67;51.70;99957.08;104591;1279;139595;-85
2022/08/28 08:28:41;;;;;;;11.70;6.60;;;;;;;26.80;51.56;99961.60;104712;1279;109452;-83
2022/08/28 08:31:13;;;;;;;12.20;7.10;;;;;;;26.92;50.60;99957.09;104754;1279;95877;-84
2022/08/28 08:33:43;;;;;;;11.70;7.10;;;;;;;27.05;50.00;99961.75;104482;1279;139375;-84
2022/08/28 08:36:13;;;;;;;12.30;7.20;;;;;;;27.20;50.03;99961.90;104624;1280;109991;-84
2022/08/28 08:38:41;;;;;;;11.10;6.60;;;;;;;27.39;50.07;99961.09;104499;1280;139553;-84
2022/08/28 08:41:20;;;;;;;13.60;7.00;;;;;;;27.56;49.21;99960.77;104652;1279;109324;-84
2022/08/28 08:43:56;;;;;;;10.30;6.40;;;;;;;27.71;48.51;99959.84;104460;1281;139899;-83
2022/08/28 08:46:45;;;;;;;11.10;6.20;;;;;;;27.92;48.57;99965.20;104639;1280;95123;-84
2022/08/28 08:49:17;;;;;;;9.80;6.00;;;;;;;28.12;47.52;99962.92;104521;1281;110176;-82
2022/08/28 08:52:10;;;;;;;11.20;5.90;;;;;;;28.24;48.35;99959.92;104449;1279;140737;-83
2022/08/28 08:54:43;;;;;;;9.30;5.40;;;;;;;28.36;47.40;99960.72;105831;1279;108709;-83
2022/08/28 08:57:13;;;;;;;8.50;5.70;;;;;;;28.53;47.11;99965.41;104640;1279;140465;-83
2022/08/28 08:59:41;;;;;;;9.60;5.40;;;;;;;28.78;46.86;99963.18;104565;1279;95659;-83
2022/08/28 09:02:17;;;;;;;9.60;5.80;;;;;;;29.02;46.58;99964.63;104426;1279;139836;-82
2022/08/28 09:05:03;;;;;;;9.40;5.40;;;;;;;29.27;46.64;99965.52;104645;1279;100008;-83
2022/08/28 09:07:46;;;;;;;9.70;5.40;;;;;;;29.44;45.40;99967.34;104537;1279;109399;-84
2022/08/28 09:10:19;;;;;;;10.60;5.20;;;;;;;29.71;44.83;99965.12;104490;1281;95230;-83
2022/08/28 09:13:05;;;;;;;8.10;4.80;;;;;;;30.73;42.18;99960.18;104784;1280;95145;-83
2022/08/28 09:15:38;;;;;;;8.80;4.80;;;;;;;32.31;39.91;99960.91;104556;1279;137957;-84
2022/08/28 09:18:19;;;;;;;7.80;4.20;;;;;;;33.65;36.78;99967.64;105185;1279;99844;-85
2022/08/28 09:20:54;;;;;;;8.00;4.60;;;;;;;34.81;35.44;99966.55;104460;1279;140369;-84
2022/08/28 09:23:23;;;;;;;8.10;4.60;;;;;;;35.66;33.40;99965.88;104620;1279;95378;-84
2022/08/28 09:25:58;;;;;;;9.60;4.20;;;;;;;35.77;32.92;99965.71;104827;1278;140297;-84
2022/08/28 09:28:34;;;;;;;8.70;4.20;;;;;;;36.42;33.05;99963.20;104686;1280;110775;-84
2022/08/28 09:31:07;;;;;;;7.80;4.50;;;;;;;37.42;30.40;99963.44;104601;1279;99882;-84
2022/08/28 09:33:40;;;;;;;7.50;4.10;;;;;;;38.25;29.53;99964.67;104639;1279;140821;-85
2022/08/28 09:36:32;;;;;;;8.00;3.90;;;;;;;39.09;28.73;99968.48;104574;1281;95239;-86
2022/08/28 09:39:06;;;;;;;10.80;4.10;;;;;;;40.04;26.93;99969.35;104598;1279;139393;-83
2022/08/28 09:44:27;;;;;;;8.70;3.90;;;;;;;41.47;24.40;99965.36;103589;1279;1341905;-86
2022/08/28 09:46:55;;;;;;;9.60;3.80;;;;;;;41.68;24.12;99967.23;104683;1279;109371;-84
2022/08/28 09:49:28;;;;;;;8.20;4.00;;;;;;;42.14;24.03;99964.39;104702;1279;95207;-84
2022/08/28 09:52:00;;;;;;;7.90;3.50;;;;;;;42.50;22.62;99965.22;104660;1279;139397;-84
2022/08/28 09:54:34;;;;;;;8.50;3.90;;;;;;;42.28;22.63;99962.95;104795;1281;107437;-84
2022/08/28 09:57:02;;;;;;;9.40;3.70;;;;;;;42.73;22.86;99966.77;104356;1281;139305;-85
2022/08/28 09:59:30;;;;;;;8.00;3.40;;;;;;;43.37;22.19;99966.33;104582;1279;108933;-85
2022/08/28 10:02:30;;;;;;;6.80;3.40;;;;;;;43.71;21.45;99965.23;104375;1281;139685;-87
2022/08/28 10:05:15;;;;;;;8.80;3.70;;;;;;;44.04;21.32;99961.83;104577;1279;95286;-84
2022/08/28 10:07:56;;;;;;;7.70;3.30;;;;;;;44.50;21.52;99958.91;104562;1281;108751;-90
2022/08/28 10:10:40;;;;;;;8.40;3.40;;;;;;;44.47;19.84;99961.09;104862;1281;99959;-86
2022/08/28 10:13:16;;;;;;;7.60;3.40;;;;;;;44.30;19.95;99959.36;105531;1281;109517;-85
2022/08/28 10:16:23;;;;;;;7.10;3.20;;;;;;;44.48;19.41;99954.46;104465;1281;139786;-83
2022/08/28 10:19:01;;;;;;;8.70;3.30;;;;;;;44.40;19.45;99953.44;104569;1279;95215;-87
2022/08/28 10:21:35;;;;;;;7.20;3.60;;;;;;;44.72;19.69;99954.36;104455;1279;138793;-84
2022/08/28 10:24:06;;;;;;;7.50;3.30;;;;;;;45.01;18.47;99951.29;104672;1279;99954;-85
2022/08/28 10:26:54;;;;;;;9.80;3.80;;;;;;;44.73;18.73;99953.13;104809;1279;140291;-85
2022/08/28 10:29:28;;;;;;;8.40;3.50;;;;;;;44.96;19.21;99951.00;104668;1279;95216;-84
2022/08/28 10:32:18;;;;;;;9.30;3.60;;;;;;;45.21;18.59;99954.45;104488;1279;139823;-85
2022/08/28 10:34:49;;;;;;;8.40;3.60;;;;;;;45.38;18.63;99949.42;104500;1281;110151;-86
2022/08/28 10:37:51;;;;;;;7.90;3.60;;;;;;;45.30;18.52;99946.95;104535;1279;99865;-85
2022/08/28 10:40:31;;;;;;;7.20;3.60;;;;;;;44.91;19.12;99942.17;104490;1279;109505;-85
2022/08/28 10:43:10;;;;;;;8.20;3.90;;;;;;;45.64;18.88;99939.64;104580;1279;95550;-86
2022/08/28 10:45:39;;;;;;;8.10;3.60;;;;;;;45.72;18.08;99939.91;104408;1281;139853;-84
2022/08/28 10:48:14;;;;;;;8.60;3.30;;;;;;;45.69;18.10;99939.14;104706;1279;109738;-87
2022/08/28 10:50:54;;;;;;;7.00;3.60;;;;;;;46.26;17.28;99936.63;104722;1279;138786;-87
2022/08/28 10:53:28;;;;;;;9.60;3.60;;;;;;;45.71;17.26;99934.77;104618;1279;109458;-84
2022/08/28 10:56:06;;;;;;;7.10;3.60;;;;;;;44.49;18.94;99933.73;104416;1279;140488;-85
2022/08/28 10:58:38;;;;;;;7.50;4.00;;;;;;;43.53;19.69;99933.58;104626;1280;97182;-84
2022/08/28 11:01:10;;;;;;;8.20;3.80;;;;;;;42.34;20.00;99937.63;104707;1279;110194;-84
2022/08/28 11:03:45;;;;;;;8.40;4.10;;;;;;;40.94;21.50;99937.34;104416;1281;138828;-86
2022/08/28 11:06:20;;;;;;;7.90;3.70;;;;;;;39.46;22.91;99938.79;104532;1280;108786;-84
2022/08/28 11:08:58;;;;;;;8.70;4.10;;;;;;;38.37;23.88;99938.69;104454;1279;139641;-83
2022/08/28 11:11:43;;;;;;;8.70;4.10;;;;;;;37.69;25.03;99939.42;104591;1279;95155;-88
2022/08/28 11:14:23;;;;;;;8.50;4.10;;;;;;;37.14;26.08;99942.27;105293;1281;137784;-85
2022/08/28 11:16:55;;;;;;;8.80;4.20;;;;;;;36.67;26.05;99940.30;104959;1280;99878;-87
2022/08/28 11:19:32;;;;;;;9.30;4.10;;;;;;;36.24;27.06;99940.69;104537;1281;110785;-83
2022/08/28 11:22:09;;;;;;;7.60;4.10;;;;;;;35.74;27.97;99940.55;104553;1281;140247;-85
2022/08/28 11:24:42;;;;;;;9.00;4.10;;;;;;;35.48;27.96;99939.56;104810;1279;95910;-85
2022/08/28 11:27:26;;;;;;;11.20;4.10;;;;;;;35.18;28.76;99938.52;104454;1279;138973;-86
2022/08/28 11:30:09;;;;;;;10.30;4.20;;;;;;;34.91;28.62;99938.30;105280;1279;99904;-83
2022/08/28 11:32:55;;;;;;;8.40;4.00;;;;;;;34.60;29.43;99936.38;104458;1279;138096;-85
2022/08/28 11:35:29;;;;;;;9.50;4.10;;;;;;;34.41;30.53;99934.80;104563;1279;95677;-84
2022/08/28 11:37:57;;;;;;;8.80;4.10;;;;;;;34.20;29.94;99937.36;104455;1281;141268;-84
2022/08/28 11:40:30;;;;;;;7.50;4.10;;;;;;;33.95;29.81;99935.59;104645;1281;110212;-85
2022/08/28 11:43:14;;;;;;;9.00;4.20;;;;;;;33.77;29.91;99944.75;104515;1281;99948;-87
2022/08/28 11:45:49;;;;;;;9.40;4.40;;;;;;;33.53;30.94;99942.25;104494;1281;139568;-87
2022/08/28 11:48:32;;;;;;;9.70;4.50;;;;;;;33.41;31.87;99941.50;104620;1280;95426;-85